createdAt,value
2018-07-12T00:07:24.278Z,99.90
2018-07-12T00:12:29.518Z,99.90
2018-07-12T00:17:31.738Z,99.90
2018-07-12T00:22:33.930Z,99.90
2018-07-12T00:27:36.102Z,99.90
2018-07-12T00:32:38.282Z,99.90
2018-07-12T00:37:40.490Z,99.90
2018-07-12T00:42:42.668Z,99.90
2018-07-12T00:47:44.854Z,99.90
2018-07-12T00:52:47.051Z,99.90
2018-07-12T00:57:49.253Z,99.90
2018-07-12T01:02:51.434Z,99.90
2018-07-12T01:07:53.613Z,99.90
2018-07-12T01:12:55.798Z,99.90
2018-07-12T01:17:57.982Z,99.90
2018-07-12T01:23:01.163Z,99.90
2018-07-12T01:28:03.341Z,99.90
2018-07-12T01:33:05.531Z,99.90
2018-07-12T01:38:07.734Z,99.90
2018-07-12T01:43:10.206Z,99.90
2018-07-12T01:48:12.693Z,99.90
2018-07-12T01:53:14.903Z,99.90
2018-07-12T01:58:17.082Z,99.90
2018-07-12T02:03:19.254Z,99.90
2018-07-12T02:08:21.449Z,99.90
2018-07-12T02:13:23.630Z,99.90
2018-07-12T02:18:25.914Z,99.90
2018-07-12T02:23:28.127Z,99.90
2018-07-12T02:28:30.290Z,99.90
2018-07-12T02:33:32.498Z,99.90
2018-07-12T02:38:34.678Z,99.90
2018-07-12T02:43:36.862Z,99.90
2018-07-12T02:48:39.079Z,99.90
2018-07-12T02:53:41.256Z,99.90
2018-07-12T02:58:43.438Z,99.90
2018-07-12T03:03:45.680Z,99.90
2018-07-12T03:08:47.882Z,99.90
2018-07-12T03:13:50.231Z,99.90
2018-07-12T03:18:52.458Z,99.90
2018-07-12T03:23:54.653Z,99.90
2018-07-12T03:28:56.845Z,99.90
2018-07-12T03:33:59.998Z,99.90
2018-07-12T03:39:02.190Z,99.90
2018-07-12T03:44:04.362Z,99.90
2018-07-12T03:49:06.562Z,99.90
2018-07-12T03:54:08.743Z,99.90
2018-07-12T03:59:10.966Z,99.90
2018-07-12T04:04:13.181Z,99.90
2018-07-12T04:09:15.434Z,99.90
2018-07-12T04:14:17.697Z,99.90
2018-07-12T04:19:19.894Z,99.90
2018-07-12T04:24:25.548Z,99.90
2018-07-12T04:29:27.779Z,99.90
2018-07-12T04:34:29.979Z,99.90
2018-07-12T04:39:32.194Z,99.90
2018-07-12T04:44:34.404Z,99.90
2018-07-12T04:49:36.606Z,99.90
2018-07-12T04:54:38.792Z,99.90
2018-07-12T04:59:40.990Z,99.90
2018-07-12T05:04:43.170Z,99.90
2018-07-12T05:09:45.562Z,99.90
2018-07-12T05:14:47.733Z,99.90
2018-07-12T05:19:49.914Z,99.90
2018-07-12T05:24:52.117Z,99.90
2018-07-12T05:29:54.330Z,99.90
2018-07-12T05:34:56.498Z,99.90
2018-07-12T05:39:59.663Z,99.90
2018-07-12T05:45:06.422Z,99.90
2018-07-12T05:50:09.633Z,99.90
2018-07-12T05:55:12.795Z,99.90
2018-07-12T06:00:16.757Z,99.90
2018-07-12T06:05:19.902Z,99.90
2018-07-12T06:10:23.219Z,99.90
2018-07-12T06:15:26.299Z,99.90
2018-07-12T06:20:29.486Z,99.90
2018-07-12T06:25:33.529Z,99.90
2018-07-12T06:30:36.654Z,99.90
2018-07-12T06:35:39.811Z,99.90
2018-07-12T06:40:42.987Z,99.90
2018-07-12T06:45:46.175Z,99.90
2018-07-12T06:50:49.430Z,99.90
2018-07-12T06:55:52.750Z,99.90
2018-07-12T07:00:55.954Z,99.90
2018-07-12T07:05:59.150Z,99.90
2018-07-12T07:11:03.370Z,99.90
2018-07-12T07:16:07.301Z,99.90
2018-07-12T07:21:10.618Z,99.90
2018-07-12T07:26:13.832Z,99.90
2018-07-12T07:31:17.011Z,99.90
2018-07-12T07:36:20.266Z,99.90
2018-07-12T07:41:24.345Z,99.90
2018-07-12T07:46:27.538Z,99.90
2018-07-12T07:51:30.712Z,99.90
2018-07-12T07:56:33.898Z,99.90
2018-07-12T08:01:37.125Z,99.90
2018-07-12T08:06:40.370Z,99.90
2018-07-12T08:11:43.665Z,99.90
2018-07-12T08:16:46.808Z,99.90
2018-07-12T08:21:50.262Z,99.90
2018-07-12T08:26:53.642Z,99.90
2018-07-12T08:31:56.843Z,99.90
2018-07-12T08:37:00.074Z,99.90
2018-07-12T08:42:03.191Z,99.90
2018-07-12T08:47:06.373Z,99.60
2018-07-12T08:52:10.358Z,99.90
2018-07-12T08:57:13.576Z,99.50
2018-07-12T09:02:16.782Z,99.90
2018-07-12T09:07:20.138Z,98.70
2018-07-12T09:12:23.331Z,99.20
2018-07-12T09:17:26.464Z,98.50
2018-07-12T09:22:29.658Z,97.10
2018-07-12T09:27:32.901Z,97.20
2018-07-12T09:32:36.174Z,97.30
2018-07-12T09:37:39.693Z,97.30
2018-07-12T09:42:42.890Z,98.50
2018-07-12T09:47:47.086Z,97.50
2018-07-12T09:52:50.275Z,96.50
2018-07-12T09:58:05.814Z,97.40
2018-07-12T10:03:14.625Z,97.10
2018-07-12T10:08:24.224Z,97.90
2018-07-12T10:13:31.719Z,96.40
2018-07-12T10:18:34.882Z,96.20
2018-07-12T10:23:38.106Z,95.50
2018-07-12T10:28:41.346Z,93.90
2018-07-12T10:33:44.565Z,94.30
2018-07-12T10:38:48.946Z,93.90
2018-07-12T10:43:52.205Z,93.30
2018-07-12T10:48:55.398Z,94.10
2018-07-12T10:53:58.690Z,93.30
2018-07-12T10:59:01.907Z,92.50
2018-07-12T11:04:06.617Z,92.60
2018-07-12T11:09:11.066Z,92.50
2018-07-12T11:14:18.342Z,92.80
2018-07-12T11:19:22.231Z,94.00
2018-07-12T11:24:26.500Z,92.40
2018-07-12T11:29:43.006Z,91.30
2018-07-12T11:34:48.856Z,91.30
2018-07-12T11:39:53.079Z,91.00
2018-07-12T11:45:01.727Z,91.00
2018-07-12T11:50:05.048Z,92.20
2018-07-12T11:55:08.196Z,90.30
2018-07-12T12:00:11.452Z,89.80
2018-07-12T12:05:14.650Z,88.70
2018-07-12T12:10:17.869Z,88.00
2018-07-12T12:15:23.193Z,86.30
2018-07-12T12:20:26.494Z,85.50
2018-07-12T12:25:30.286Z,84.30
2018-07-12T12:30:41.330Z,84.20
2018-07-12T12:35:47.838Z,83.20
2018-07-12T12:40:51.482Z,82.20
2018-07-12T12:45:54.690Z,82.40
2018-07-12T12:51:13.081Z,82.70
2018-07-12T12:56:16.289Z,81.50
2018-07-12T13:01:19.463Z,81.00
2018-07-12T13:06:23.166Z,80.20
2018-07-12T13:11:26.311Z,80.00
2018-07-12T13:16:29.490Z,77.40
2018-07-12T13:26:35.621Z,77.40
2018-07-12T13:31:39.986Z,78.20
2018-07-12T13:36:43.225Z,78.00
2018-07-12T13:41:50.142Z,77.40
2018-07-12T13:46:54.952Z,77.70
2018-07-12T13:51:59.831Z,79.70
2018-07-12T13:57:03.012Z,77.70
2018-07-12T14:02:06.587Z,75.80
2018-07-12T14:07:09.739Z,76.80
2018-07-12T14:12:12.996Z,76.30
2018-07-12T14:22:19.176Z,74.80
2018-07-12T14:27:26.731Z,74.10
2018-07-12T14:32:30.682Z,76.50
2018-07-12T14:37:33.890Z,76.20
2018-07-12T14:42:37.025Z,77.00
2018-07-12T14:47:40.182Z,76.90
2018-07-12T14:52:43.393Z,77.50
2018-07-12T14:57:46.585Z,78.80
2018-07-12T15:02:49.774Z,76.50
2018-07-12T15:07:52.957Z,73.40
2018-07-12T15:12:56.086Z,73.80
2018-07-12T15:17:59.306Z,70.90
2018-07-12T15:23:02.504Z,71.20
2018-07-12T15:28:05.937Z,71.10
2018-07-12T15:33:08.831Z,69.30
2018-07-12T15:38:11.970Z,70.30
2018-07-12T15:43:15.140Z,72.20
2018-07-12T15:48:18.286Z,75.60
2018-07-12T15:53:21.484Z,80.20
2018-07-12T15:58:24.658Z,82.30
2018-07-12T16:03:27.883Z,84.00
2018-07-12T16:08:31.142Z,87.80
2018-07-12T16:13:34.399Z,87.60
2018-07-12T16:18:37.489Z,86.60
2018-07-12T16:23:40.631Z,85.30
2018-07-12T16:28:43.795Z,85.70
2018-07-12T16:33:46.959Z,87.10
2018-07-12T16:38:50.151Z,87.90
2018-07-12T16:43:53.285Z,88.20
2018-07-12T16:48:56.430Z,87.60
2018-07-12T16:53:59.546Z,87.40
2018-07-12T16:59:02.767Z,86.70
2018-07-12T17:04:05.978Z,86.30
2018-07-12T17:09:09.140Z,88.00
2018-07-12T17:14:12.417Z,85.50
2018-07-12T17:19:15.486Z,78.50
2018-07-12T17:24:18.854Z,77.90
2018-07-12T17:34:24.988Z,77.20
2018-07-12T17:39:28.157Z,79.40
2018-07-12T17:44:32.295Z,82.30
2018-07-12T17:49:35.623Z,83.10
2018-07-12T17:54:38.761Z,85.20
2018-07-12T17:59:41.902Z,86.10
2018-07-12T18:04:45.036Z,86.20
2018-07-12T18:09:48.170Z,87.50
2018-07-12T18:14:51.337Z,89.60
2018-07-12T18:19:54.502Z,90.70
2018-07-12T18:24:57.657Z,91.40
2018-07-12T18:30:00.790Z,91.20
2018-07-12T18:35:03.976Z,92.00
2018-07-12T18:40:07.123Z,92.30
2018-07-12T18:45:10.283Z,92.30
2018-07-12T18:50:13.422Z,92.50
2018-07-12T18:55:16.583Z,92.80
2018-07-12T19:00:19.746Z,93.20
2018-07-12T19:05:22.912Z,93.20
2018-07-12T19:10:26.078Z,93.30
2018-07-12T19:15:29.278Z,93.70
2018-07-12T19:20:32.402Z,94.50
2018-07-12T19:25:35.559Z,94.40
2018-07-12T19:30:38.723Z,95.00
2018-07-12T19:35:41.854Z,95.10
2018-07-12T19:40:44.994Z,95.30
2018-07-12T19:45:48.200Z,95.40
2018-07-12T19:50:53.449Z,95.10
2018-07-12T19:55:56.741Z,95.20
2018-07-12T20:00:59.966Z,95.20
2018-07-12T20:06:03.204Z,95.30
2018-07-12T20:11:06.366Z,95.70
2018-07-12T20:16:11.550Z,96.20
2018-07-12T20:21:14.746Z,96.20
2018-07-12T20:26:17.886Z,96.80
2018-07-12T20:31:26.182Z,96.30
2018-07-12T20:36:42.665Z,96.20
2018-07-12T20:41:45.863Z,96.50
2018-07-12T20:46:49.008Z,96.60
2018-07-12T20:51:52.185Z,96.90
2018-07-12T20:56:55.327Z,97.20
2018-07-12T21:01:58.479Z,97.20
2018-07-12T21:07:01.648Z,97.60
2018-07-12T21:12:04.823Z,97.70
2018-07-12T21:17:08.086Z,97.70
2018-07-12T21:22:11.294Z,97.70
2018-07-12T21:27:14.434Z,97.70
2018-07-12T21:32:17.575Z,97.70
2018-07-12T21:37:20.926Z,97.70
2018-07-12T21:42:24.183Z,97.90
2018-07-12T21:47:27.334Z,98.00
2018-07-12T21:52:30.458Z,98.30
2018-07-12T21:57:33.782Z,98.50
2018-07-12T22:02:36.910Z,98.80
2018-07-12T22:07:53.107Z,98.70
2018-07-12T22:12:56.266Z,98.60
2018-07-12T22:17:59.560Z,99.10
2018-07-12T22:23:02.802Z,99.30
2018-07-12T22:28:06.023Z,99.30
2018-07-12T22:33:09.220Z,99.30
2018-07-12T22:38:12.346Z,99.90
2018-07-12T22:43:15.551Z,99.90
2018-07-12T22:48:18.925Z,99.90
2018-07-12T22:53:22.783Z,99.70
2018-07-12T22:58:25.926Z,99.70
2018-07-12T23:03:29.085Z,99.90
2018-07-12T23:08:32.262Z,99.90
2018-07-12T23:13:35.398Z,99.90
2018-07-12T23:18:38.551Z,99.60
2018-07-12T23:23:41.698Z,99.50
2018-07-12T23:28:44.830Z,99.60
2018-07-12T23:33:47.950Z,99.40
2018-07-12T23:38:51.962Z,99.40
2018-07-12T23:43:55.075Z,99.40
2018-07-12T23:48:58.185Z,99.60
2018-07-12T23:54:01.333Z,99.30
2018-07-12T23:59:04.490Z,99.40
